Terminal Aerodrome Forecast
Issued by NWS

Home | Current Version | Previous Version | Text Only | Print | Product List | Glossary On
Versions: 1 2 3 4 5 6 7 8 9 10 11 12 13
240
FTUS42 KFFC 261120
TAFRYY
TAF
KRYY 261120Z 2612/2712 00000KT P6SM SKC
     FM261700 35006KT P6SM FEW050 FEW250
     FM270100 00000KT P6SM SKC=

USA.gov is the U.S. government's official web portal to all federal, state and local government web resources and services.